Aviation Digital Data Service (ADDS)

Output produced by METARs form (0128 UTC 06 December 2019)
found at http://www.aviationweather.gov/metar/data/
 
METAR text: KTRK 060115Z AUTO 00000KT 1SM BR VV007 01/00 A3011 RMK AO2 VIS 3/4V3
Conditions at: KTRK (TRUCKEE TAHOE , CA, US) observed 0115 UTC 06 December 2019
Temperature: 1.0°C (34°F)
Dewpoint: 0.0°C (32°F) [RH = 93%]
Pressure (altimeter): 30.11 inches Hg (1019.7 mb)
Winds: calm
Visibility: 1.00 miles (1.61 km)
Ceiling: indefinite ceiling with vertical visibility of 700 feet AGL
Clouds: obscured sky
Weather: BR  (mist)

METAR text: KTRK 060050Z 00000KT 10SM SKC 02/02 A3011
Conditions at: KTRK (TRUCKEE TAHOE , CA, US) observed 0050 UTC 06 December 2019
Temperature: 2.0°C (36°F)
Dewpoint: 2.0°C (36°F) [RH = 100%]
Pressure (altimeter): 30.11 inches Hg (1019.7 mb)
Winds: calm
Visibility: 10 or more miles (16+ km)
Ceiling: at least 12,000 feet AGL
Clouds: clear skies
Weather: no significant weather observed at this time

METAR text: KTRK 052345Z 00000KT 10SM SKC 04/02 A3011
Conditions at: KTRK (TRUCKEE TAHOE , CA, US) observed 2345 UTC 05 December 2019
Temperature: 4.0°C (39°F)
Dewpoint: 2.0°C (36°F) [RH = 87%]
Pressure (altimeter): 30.11 inches Hg (1019.7 mb)
Winds: calm
Visibility: 10 or more miles (16+ km)
Ceiling: at least 12,000 feet AGL
Clouds: clear skies
Weather: no significant weather observed at this time

METAR text: KTRK 052245Z 00000KT 10SM SKC 04/02 A3012
Conditions at: KTRK (TRUCKEE TAHOE , CA, US) observed 2245 UTC 05 December 2019
Temperature: 4.0°C (39°F)
Dewpoint: 2.0°C (36°F) [RH = 87%]
Pressure (altimeter): 30.12 inches Hg (1020.1 mb)
Winds: calm
Visibility: 10 or more miles (16+ km)
Ceiling: at least 12,000 feet AGL
Clouds: clear skies
Weather: no significant weather observed at this time

METAR text: KTRK 052145Z 00000KT 10SM FEW045 03/02 A3012
Conditions at: KTRK (TRUCKEE TAHOE , CA, US) observed 2145 UTC 05 December 2019
Temperature: 3.0°C (37°F)
Dewpoint: 2.0°C (36°F) [RH = 93%]
Pressure (altimeter): 30.12 inches Hg (1020.1 mb)
Winds: calm
Visibility: 10 or more miles (16+ km)
Ceiling: at least 12,000 feet AGL
Clouds: few clouds at 4500 feet AGL
Weather: no significant weather observed at this time

METAR text: KTRK 052045Z 00000KT 10SM SCT002 02/01 A3013
Conditions at: KTRK (TRUCKEE TAHOE , CA, US) observed 2045 UTC 05 December 2019
Temperature: 2.0°C (36°F)
Dewpoint: 1.0°C (34°F) [RH = 93%]
Pressure (altimeter): 30.13 inches Hg (1020.4 mb)
Winds: calm
Visibility: 10 or more miles (16+ km)
Ceiling: at least 12,000 feet AGL
Clouds: scattered clouds at 200 feet AGL
Weather: no significant weather observed at this time

METAR text: KTRK 051945Z 00000KT <1/4SM FZFG OVC002 00/00 A3014
Conditions at: KTRK (TRUCKEE TAHOE , CA, US) observed 1945 UTC 05 December 2019
Temperature: 0.0°C (32°F)
Dewpoint: 0.0°C (32°F) [RH = 100%]
Pressure (altimeter): 30.14 inches Hg (1020.7 mb)
Winds: calm
Visibility: 0.25 miles (0.40 km)
Ceiling: 200 feet AGL
Clouds: overcast cloud deck at 200 feet AGL
Weather: FZFG  (freezing fog)

METAR text: KTRK 051845Z 00000KT 1/4SM FZFG OVC002 M01/M01 A3015
Conditions at: KTRK (TRUCKEE TAHOE , CA, US) observed 1845 UTC 05 December 2019
Temperature: -1.0°C (30°F)
Dewpoint: -1.0°C (30°F) [RH = 100%]
Pressure (altimeter): 30.15 inches Hg (1021.1 mb)
Winds: calm
Visibility: 0.25 miles (0.40 km)
Ceiling: 200 feet AGL
Clouds: overcast cloud deck at 200 feet AGL
Weather: FZFG  (freezing fog)

METAR text: KTRK 051745Z 00000KT 1/4SM FZFG OVC002 M02/M02 A3017
Conditions at: KTRK (TRUCKEE TAHOE , CA, US) observed 1745 UTC 05 December 2019
Temperature: -2.0°C (28°F)
Dewpoint: -2.0°C (28°F) [RH = 100%]
Pressure (altimeter): 30.17 inches Hg (1021.8 mb)
Winds: calm
Visibility: 0.25 miles (0.40 km)
Ceiling: 200 feet AGL
Clouds: overcast cloud deck at 200 feet AGL
Weather: FZFG  (freezing fog)

METAR text: KTRK 051650Z 00000KT 1/4SM FZFG OVC002 M03/M03 A3014
Conditions at: KTRK (TRUCKEE TAHOE , CA, US) observed 1650 UTC 05 December 2019
Temperature: -3.0°C (27°F)
Dewpoint: -3.0°C (27°F) [RH = 100%]
Pressure (altimeter): 30.14 inches Hg (1020.7 mb)
Winds: calm
Visibility: 0.25 miles (0.40 km)
Ceiling: 200 feet AGL
Clouds: overcast cloud deck at 200 feet AGL
Weather: FZFG  (freezing fog)

METAR text: KTRK 051545Z 00000KT 1/4SM FZFG OVC002 M03/M03 A3011
Conditions at: KTRK (TRUCKEE TAHOE , CA, US) observed 1545 UTC 05 December 2019
Temperature: -3.0°C (27°F)
Dewpoint: -3.0°C (27°F) [RH = 100%]
Pressure (altimeter): 30.11 inches Hg (1019.7 mb)
Winds: calm
Visibility: 0.25 miles (0.40 km)
Ceiling: 200 feet AGL
Clouds: overcast cloud deck at 200 feet AGL
Weather: FZFG  (freezing fog)

METAR text: KTRK 051445Z 00000KT 1/2SM FZFG OVC002 M04/M05 A3010
Conditions at: KTRK (TRUCKEE TAHOE , CA, US) observed 1445 UTC 05 December 2019
Temperature: -4.0°C (25°F)
Dewpoint: -5.0°C (23°F) [RH = 93%]
Pressure (altimeter): 30.10 inches Hg (1019.4 mb)
Winds: calm
Visibility: 0.50 miles (0.80 km)
Ceiling: 200 feet AGL
Clouds: overcast cloud deck at 200 feet AGL
Weather: FZFG  (freezing fog)

METAR text: KTRK 051335Z AUTO 00000KT M1/4SM FZFG OVC002 M04/M05 A3007 RMK AO2
Conditions at: KTRK (TRUCKEE TAHOE , CA, US) observed 1335 UTC 05 December 2019
Temperature: -4.0°C (25°F)
Dewpoint: -5.0°C (23°F) [RH = 93%]
Pressure (altimeter): 30.07 inches Hg (1018.4 mb)
Winds: calm
Visibility: 0.25 miles (0.40 km)
Ceiling: 200 feet AGL
Clouds: overcast cloud deck at 200 feet AGL
Weather: FZFG  (freezing fog)

METAR text: KTRK 051315Z AUTO 08004KT 1 1/4SM BR SCT002 BKN029 M02/M03 A3007 RMK AO2
Conditions at: KTRK (TRUCKEE TAHOE , CA, US) observed 1315 UTC 05 December 2019
Temperature: -2.0°C (28°F)
Dewpoint: -3.0°C (27°F) [RH = 93%]
Pressure (altimeter): 30.07 inches Hg (1018.4 mb)
Winds: from the E (80 degrees) at 5 MPH (4 knots; 2.1 m/s)
Visibility: 1.25 miles (2.01 km)
Ceiling: 2900 feet AGL
Clouds: scattered clouds at 200 feet AGL
broken clouds at 2900 feet AGL
Weather: BR  (mist)

METAR text: KTRK 051255Z AUTO 00000KT 1SM BR OVC002 M02/M02 A3007 RMK AO2
Conditions at: KTRK (TRUCKEE TAHOE , CA, US) observed 1255 UTC 05 December 2019
Temperature: -2.0°C (28°F)
Dewpoint: -2.0°C (28°F) [RH = 100%]
Pressure (altimeter): 30.07 inches Hg (1018.4 mb)
Winds: calm
Visibility: 1.00 miles (1.61 km)
Ceiling: 200 feet AGL
Clouds: overcast cloud deck at 200 feet AGL
Weather: BR  (mist)

METAR text: KTRK 051235Z AUTO 00000KT 1/2SM FZFG BKN002 OVC035 M03/M03 A3006 RMK AO2
Conditions at: KTRK (TRUCKEE TAHOE , CA, US) observed 1235 UTC 05 December 2019
Temperature: -3.0°C (27°F)
Dewpoint: -3.0°C (27°F) [RH = 100%]
Pressure (altimeter): 30.06 inches Hg (1018.0 mb)
Winds: calm
Visibility: 0.50 miles (0.80 km)
Ceiling: 200 feet AGL
Clouds: broken clouds at 200 feet AGL
overcast cloud deck at 3500 feet AGL
Weather: FZFG  (freezing fog)

METAR text: KTRK 051215Z AUTO 12004KT 1/2SM FZFG SCT002 BKN024 OVC033 M02/M02 A3007 RMK AO2
Conditions at: KTRK (TRUCKEE TAHOE , CA, US) observed 1215 UTC 05 December 2019
Temperature: -2.0°C (28°F)
Dewpoint: -2.0°C (28°F) [RH = 100%]
Pressure (altimeter): 30.07 inches Hg (1018.4 mb)
Winds: from the ESE (120 degrees) at 5 MPH (4 knots; 2.1 m/s)
Visibility: 0.50 miles (0.80 km)
Ceiling: 2400 feet AGL
Clouds: scattered clouds at 200 feet AGL
broken clouds at 2400 feet AGL
overcast cloud deck at 3300 feet AGL
Weather: FZFG  (freezing fog)

METAR text: KTRK 051155Z AUTO 00000KT 1/2SM FZFG BKN002 BKN022 OVC032 M02/M02 A3006 RMK AO2
Conditions at: KTRK (TRUCKEE TAHOE , CA, US) observed 1155 UTC 05 December 2019
Temperature: -2.0°C (28°F)
Dewpoint: -2.0°C (28°F) [RH = 100%]
Pressure (altimeter): 30.06 inches Hg (1018.0 mb)
Winds: calm
Visibility: 0.50 miles (0.80 km)
Ceiling: 200 feet AGL
Clouds: broken clouds at 200 feet AGL
broken clouds at 2200 feet AGL
overcast cloud deck at 3200 feet AGL
Weather: FZFG  (freezing fog)

METAR text: KTRK 051135Z AUTO 00000KT 1/2SM FZFG OVC002 M01/M01 A3005 RMK AO2
Conditions at: KTRK (TRUCKEE TAHOE , CA, US) observed 1135 UTC 05 December 2019
Temperature: -1.0°C (30°F)
Dewpoint: -1.0°C (30°F) [RH = 100%]
Pressure (altimeter): 30.05 inches Hg (1017.7 mb)
Winds: calm
Visibility: 0.50 miles (0.80 km)
Ceiling: 200 feet AGL
Clouds: overcast cloud deck at 200 feet AGL
Weather: FZFG  (freezing fog)

METAR text: KTRK 051115Z AUTO 00000KT 1/4SM FZFG OVC002 M02/M02 A3004 RMK AO2
Conditions at: KTRK (TRUCKEE TAHOE , CA, US) observed 1115 UTC 05 December 2019
Temperature: -2.0°C (28°F)
Dewpoint: -2.0°C (28°F) [RH = 100%]
Pressure (altimeter): 30.04 inches Hg (1017.4 mb)
Winds: calm
Visibility: 0.25 miles (0.40 km)
Ceiling: 200 feet AGL
Clouds: overcast cloud deck at 200 feet AGL
Weather: FZFG  (freezing fog)

METAR text: KTRK 051055Z AUTO 14003KT 1/2SM FZFG SCT002 BKN014 OVC030 M01/M01 A3004 RMK AO2
Conditions at: KTRK (TRUCKEE TAHOE , CA, US) observed 1055 UTC 05 December 2019
Temperature: -1.0°C (30°F)
Dewpoint: -1.0°C (30°F) [RH = 100%]
Pressure (altimeter): 30.04 inches Hg (1017.4 mb)
Winds: from the SE (140 degrees) at 3 MPH (3 knots; 1.5 m/s)
Visibility: 0.50 miles (0.80 km)
Ceiling: 1400 feet AGL
Clouds: scattered clouds at 200 feet AGL
broken clouds at 1400 feet AGL
overcast cloud deck at 3000 feet AGL
Weather: FZFG  (freezing fog)

METAR text: KTRK 051035Z AUTO 00000KT 1/2SM FZFG OVC032 M01/M01 A3004 RMK AO2 LTG DSNT SE
Conditions at: KTRK (TRUCKEE TAHOE , CA, US) observed 1035 UTC 05 December 2019
Temperature: -1.0°C (30°F)
Dewpoint: -1.0°C (30°F) [RH = 100%]
Pressure (altimeter): 30.04 inches Hg (1017.4 mb)
Winds: calm
Visibility: 0.50 miles (0.80 km)
Ceiling: 3200 feet AGL
Clouds: overcast cloud deck at 3200 feet AGL
Weather: FZFG  (freezing fog)

METAR text: KTRK 051015Z AUTO 00000KT 1SM BR BKN001 OVC032 M01/M01 A3003 RMK AO2
Conditions at: KTRK (TRUCKEE TAHOE , CA, US) observed 1015 UTC 05 December 2019
Temperature: -1.0°C (30°F)
Dewpoint: -1.0°C (30°F) [RH = 100%]
Pressure (altimeter): 30.03 inches Hg (1017.0 mb)
Winds: calm
Visibility: 1.00 miles (1.61 km)
Ceiling: 100 feet AGL
Clouds: broken clouds at 100 feet AGL
overcast cloud deck at 3200 feet AGL
Weather: BR  (mist)

METAR text: KTRK 050955Z AUTO 00000KT 1/2SM FZFG BKN001 BKN006 OVC032 M01/M01 A3003 RMK AO2
Conditions at: KTRK (TRUCKEE TAHOE , CA, US) observed 0955 UTC 05 December 2019
Temperature: -1.0°C (30°F)
Dewpoint: -1.0°C (30°F) [RH = 100%]
Pressure (altimeter): 30.03 inches Hg (1017.0 mb)
Winds: calm
Visibility: 0.50 miles (0.80 km)
Ceiling: 100 feet AGL
Clouds: broken clouds at 100 feet AGL
broken clouds at 600 feet AGL
overcast cloud deck at 3200 feet AGL
Weather: FZFG  (freezing fog)

METAR text: KTRK 050935Z AUTO 00000KT 1/4SM FZFG BKN001 OVC029 M01/M01 A3002 RMK AO2
Conditions at: KTRK (TRUCKEE TAHOE , CA, US) observed 0935 UTC 05 December 2019
Temperature: -1.0°C (30°F)
Dewpoint: -1.0°C (30°F) [RH = 100%]
Pressure (altimeter): 30.02 inches Hg (1016.7 mb)
Winds: calm
Visibility: 0.25 miles (0.40 km)
Ceiling: 100 feet AGL
Clouds: broken clouds at 100 feet AGL
overcast cloud deck at 2900 feet AGL
Weather: FZFG  (freezing fog)

METAR text: KTRK 050915Z AUTO 00000KT 1 1/4SM BR OVC029 M01/M01 A3001 RMK AO2 VIS 3/4V5
Conditions at: KTRK (TRUCKEE TAHOE , CA, US) observed 0915 UTC 05 December 2019
Temperature: -1.0°C (30°F)
Dewpoint: -1.0°C (30°F) [RH = 100%]
Pressure (altimeter): 30.01 inches Hg (1016.3 mb)
Winds: calm
Visibility: 1.25 miles (2.01 km)
Ceiling: 2900 feet AGL
Clouds: overcast cloud deck at 2900 feet AGL
Weather: BR  (mist)

METAR text: KTRK 050855Z AUTO 09003KT 3/4SM -RA SCT003 BKN023 OVC030 00/00 A3000 RMK AO2
Conditions at: KTRK (TRUCKEE TAHOE , CA, US) observed 0855 UTC 05 December 2019
Temperature: 0.0°C (32°F)
Dewpoint: 0.0°C (32°F) [RH = 100%]
Pressure (altimeter): 30.00 inches Hg (1016.0 mb)
Winds: from the E (90 degrees) at 3 MPH (3 knots; 1.5 m/s)
Visibility: 0.75 miles (1.21 km)
Ceiling: 2300 feet AGL
Clouds: scattered clouds at 300 feet AGL
broken clouds at 2300 feet AGL
overcast cloud deck at 3000 feet AGL
Weather: -RA  (light rain)

METAR text: KTRK 050835Z AUTO 00000KT 1/4SM FZFG BKN001 BKN023 OVC031 00/00 A3000 RMK AO2
Conditions at: KTRK (TRUCKEE TAHOE , CA, US) observed 0835 UTC 05 December 2019
Temperature: 0.0°C (32°F)
Dewpoint: 0.0°C (32°F) [RH = 100%]
Pressure (altimeter): 30.00 inches Hg (1016.0 mb)
Winds: calm
Visibility: 0.25 miles (0.40 km)
Ceiling: 100 feet AGL
Clouds: broken clouds at 100 feet AGL
broken clouds at 2300 feet AGL
overcast cloud deck at 3100 feet AGL
Weather: FZFG  (freezing fog)

METAR text: KTRK 050815Z AUTO 00000KT 2SM BR SCT001 BKN028 OVC037 00/00 A3000 RMK AO2
Conditions at: KTRK (TRUCKEE TAHOE , CA, US) observed 0815 UTC 05 December 2019
Temperature: 0.0°C (32°F)
Dewpoint: 0.0°C (32°F) [RH = 100%]
Pressure (altimeter): 30.00 inches Hg (1016.0 mb)
Winds: calm
Visibility: 2.00 miles (3.22 km)
Ceiling: 2800 feet AGL
Clouds: scattered clouds at 100 feet AGL
broken clouds at 2800 feet AGL
overcast cloud deck at 3700 feet AGL
Weather: BR  (mist)

METAR text: KTRK 050755Z AUTO 00000KT 4SM BR SCT030 OVC035 00/00 A3000 RMK AO2
Conditions at: KTRK (TRUCKEE TAHOE , CA, US) observed 0755 UTC 05 December 2019
Temperature: 0.0°C (32°F)
Dewpoint: 0.0°C (32°F) [RH = 100%]
Pressure (altimeter): 30.00 inches Hg (1016.0 mb)
Winds: calm
Visibility: 4 miles ( 6 km)
Ceiling: 3500 feet AGL
Clouds: scattered clouds at 3000 feet AGL
overcast cloud deck at 3500 feet AGL
Weather: BR  (mist)

METAR text: KTRK 050735Z AUTO 00000KT 1 1/2SM BR SCT001 OVC037 00/00 A3000 RMK AO2
Conditions at: KTRK (TRUCKEE TAHOE , CA, US) observed 0735 UTC 05 December 2019
Temperature: 0.0°C (32°F)
Dewpoint: 0.0°C (32°F) [RH = 100%]
Pressure (altimeter): 30.00 inches Hg (1016.0 mb)
Winds: calm
Visibility: 1.50 miles (2.41 km)
Ceiling: 3700 feet AGL
Clouds: scattered clouds at 100 feet AGL
overcast cloud deck at 3700 feet AGL
Weather: BR  (mist)

METAR text: KTRK 050715Z AUTO 00000KT 3SM BR SCT028 BKN036 OVC046 00/00 A2999 RMK AO2
Conditions at: KTRK (TRUCKEE TAHOE , CA, US) observed 0715 UTC 05 December 2019
Temperature: 0.0°C (32°F)
Dewpoint: 0.0°C (32°F) [RH = 100%]
Pressure (altimeter): 29.99 inches Hg (1015.7 mb)
Winds: calm
Visibility: 3 miles ( 5 km)
Ceiling: 3600 feet AGL
Clouds: scattered clouds at 2800 feet AGL
broken clouds at 3600 feet AGL
overcast cloud deck at 4600 feet AGL
Weather: BR  (mist)

METAR text: KTRK 050655Z AUTO 17003KT 4SM RA SCT022 BKN029 OVC039 00/00 A2999 RMK AO2
Conditions at: KTRK (TRUCKEE TAHOE , CA, US) observed 0655 UTC 05 December 2019
Temperature: 0.0°C (32°F)
Dewpoint: 0.0°C (32°F) [RH = 100%]
Pressure (altimeter): 29.99 inches Hg (1015.7 mb)
Winds: from the S (170 degrees) at 3 MPH (3 knots; 1.5 m/s)
Visibility: 4 miles ( 6 km)
Ceiling: 2900 feet AGL
Clouds: scattered clouds at 2200 feet AGL
broken clouds at 2900 feet AGL
overcast cloud deck at 3900 feet AGL
Weather: RA  (moderate rain)

METAR text: KTRK 050635Z AUTO 00000KT 3SM -DZ SCT022 OVC028 00/00 A2999 RMK AO2
Conditions at: KTRK (TRUCKEE TAHOE , CA, US) observed 0635 UTC 05 December 2019
Temperature: 0.0°C (32°F)
Dewpoint: 0.0°C (32°F) [RH = 100%]
Pressure (altimeter): 29.99 inches Hg (1015.7 mb)
Winds: calm
Visibility: 3 miles ( 5 km)
Ceiling: 2800 feet AGL
Clouds: scattered clouds at 2200 feet AGL
overcast cloud deck at 2800 feet AGL
Weather: -DZ  (light drizzle)

METAR text: KTRK 050615Z AUTO 00000KT 2 1/2SM BR BKN022 OVC027 00/00 A2998 RMK AO2
Conditions at: KTRK (TRUCKEE TAHOE , CA, US) observed 0615 UTC 05 December 2019
Temperature: 0.0°C (32°F)
Dewpoint: 0.0°C (32°F) [RH = 100%]
Pressure (altimeter): 29.98 inches Hg (1015.3 mb)
Winds: calm
Visibility: 2.50 miles (4.02 km)
Ceiling: 2200 feet AGL
Clouds: broken clouds at 2200 feet AGL
overcast cloud deck at 2700 feet AGL
Weather: BR  (mist)

METAR text: KTRK 050555Z AUTO 00000KT 4SM -RA BKN022 OVC028 00/00 A2997 RMK AO2
Conditions at: KTRK (TRUCKEE TAHOE , CA, US) observed 0555 UTC 05 December 2019
Temperature: 0.0°C (32°F)
Dewpoint: 0.0°C (32°F) [RH = 100%]
Pressure (altimeter): 29.97 inches Hg (1015.0 mb)
Winds: calm
Visibility: 4 miles ( 6 km)
Ceiling: 2200 feet AGL
Clouds: broken clouds at 2200 feet AGL
overcast cloud deck at 2800 feet AGL
Weather: -RA  (light rain)

METAR text: KTRK 050535Z AUTO 00000KT 1 1/4SM BR SCT002 BKN020 OVC027 00/00 A2996 RMK AO2
Conditions at: KTRK (TRUCKEE TAHOE , CA, US) observed 0535 UTC 05 December 2019
Temperature: 0.0°C (32°F)
Dewpoint: 0.0°C (32°F) [RH = 100%]
Pressure (altimeter): 29.96 inches Hg (1014.6 mb)
Winds: calm
Visibility: 1.25 miles (2.01 km)
Ceiling: 2000 feet AGL
Clouds: scattered clouds at 200 feet AGL
broken clouds at 2000 feet AGL
overcast cloud deck at 2700 feet AGL
Weather: BR  (mist)

METAR text: KTRK 050515Z AUTO 00000KT 1SM BR BKN002 OVC020 00/00 A2995 RMK AO2
Conditions at: KTRK (TRUCKEE TAHOE , CA, US) observed 0515 UTC 05 December 2019
Temperature: 0.0°C (32°F)
Dewpoint: 0.0°C (32°F) [RH = 100%]
Pressure (altimeter): 29.95 inches Hg (1014.3 mb)
Winds: calm
Visibility: 1.00 miles (1.61 km)
Ceiling: 200 feet AGL
Clouds: broken clouds at 200 feet AGL
overcast cloud deck at 2000 feet AGL
Weather: BR  (mist)

METAR text: KTRK 050455Z AUTO 00000KT 2SM UP SCT002 BKN026 OVC033 00/00 A2994 RMK AO2
Conditions at: KTRK (TRUCKEE TAHOE , CA, US) observed 0455 UTC 05 December 2019
Temperature: 0.0°C (32°F)
Dewpoint: 0.0°C (32°F) [RH = 100%]
Pressure (altimeter): 29.94 inches Hg (1014.0 mb)
Winds: calm
Visibility: 2.00 miles (3.22 km)
Ceiling: 2600 feet AGL
Clouds: scattered clouds at 200 feet AGL
broken clouds at 2600 feet AGL
overcast cloud deck at 3300 feet AGL
Weather: UP  (unknown precipitation)

METAR text: KTRK 050435Z AUTO 01003KT 3SM BR BKN030 OVC036 00/00 A2994 RMK AO2
Conditions at: KTRK (TRUCKEE TAHOE , CA, US) observed 0435 UTC 05 December 2019
Temperature: 0.0°C (32°F)
Dewpoint: 0.0°C (32°F) [RH = 100%]
Pressure (altimeter): 29.94 inches Hg (1014.0 mb)
Winds: from the N (10 degrees) at 3 MPH (3 knots; 1.5 m/s)
Visibility: 3 miles ( 5 km)
Ceiling: 3000 feet AGL
Clouds: broken clouds at 3000 feet AGL
overcast cloud deck at 3600 feet AGL
Weather: BR  (mist)

METAR text: KTRK 050415Z AUTO 00000KT 2 1/2SM BR BKN028 OVC033 00/00 A2992 RMK AO2
Conditions at: KTRK (TRUCKEE TAHOE , CA, US) observed 0415 UTC 05 December 2019
Temperature: 0.0°C (32°F)
Dewpoint: 0.0°C (32°F) [RH = 100%]
Pressure (altimeter): 29.92 inches Hg (1013.3 mb)
Winds: calm
Visibility: 2.50 miles (4.02 km)
Ceiling: 2800 feet AGL
Clouds: broken clouds at 2800 feet AGL
overcast cloud deck at 3300 feet AGL
Weather: BR  (mist)

METAR text: KTRK 050355Z AUTO 00000KT 3SM BR SCT003 BKN027 OVC033 00/00 A2992 RMK AO2
Conditions at: KTRK (TRUCKEE TAHOE , CA, US) observed 0355 UTC 05 December 2019
Temperature: 0.0°C (32°F)
Dewpoint: 0.0°C (32°F) [RH = 100%]
Pressure (altimeter): 29.92 inches Hg (1013.3 mb)
Winds: calm
Visibility: 3 miles ( 5 km)
Ceiling: 2700 feet AGL
Clouds: scattered clouds at 300 feet AGL
broken clouds at 2700 feet AGL
overcast cloud deck at 3300 feet AGL
Weather: BR  (mist)

METAR text: KTRK 050335Z AUTO 00000KT 3/4SM BR BKN001 OVC020 00/00 A2992 RMK AO2
Conditions at: KTRK (TRUCKEE TAHOE , CA, US) observed 0335 UTC 05 December 2019
Temperature: 0.0°C (32°F)
Dewpoint: 0.0°C (32°F) [RH = 100%]
Pressure (altimeter): 29.92 inches Hg (1013.3 mb)
Winds: calm
Visibility: 0.75 miles (1.21 km)
Ceiling: 100 feet AGL
Clouds: broken clouds at 100 feet AGL
overcast cloud deck at 2000 feet AGL
Weather: BR  (mist)

METAR text: KTRK 050315Z AUTO 00000KT 1SM BR SCT001 OVC027 00/00 A2990 RMK AO2
Conditions at: KTRK (TRUCKEE TAHOE , CA, US) observed 0315 UTC 05 December 2019
Temperature: 0.0°C (32°F)
Dewpoint: 0.0°C (32°F) [RH = 100%]
Pressure (altimeter): 29.90 inches Hg (1012.6 mb)
Winds: calm
Visibility: 1.00 miles (1.61 km)
Ceiling: 2700 feet AGL
Clouds: scattered clouds at 100 feet AGL
overcast cloud deck at 2700 feet AGL
Weather: BR  (mist)

METAR text: KTRK 050255Z AUTO 00000KT 1SM -DZ BKN002 BKN027 OVC033 00/00 A2989 RMK AO2
Conditions at: KTRK (TRUCKEE TAHOE , CA, US) observed 0255 UTC 05 December 2019
Temperature: 0.0°C (32°F)
Dewpoint: 0.0°C (32°F) [RH = 100%]
Pressure (altimeter): 29.89 inches Hg (1012.3 mb)
Winds: calm
Visibility: 1.00 miles (1.61 km)
Ceiling: 200 feet AGL
Clouds: broken clouds at 200 feet AGL
broken clouds at 2700 feet AGL
overcast cloud deck at 3300 feet AGL
Weather: -DZ  (light drizzle)

METAR text: KTRK 050235Z AUTO 00000KT 1/2SM FG BKN002 OVC033 00/00 A2989 RMK AO2
Conditions at: KTRK (TRUCKEE TAHOE , CA, US) observed 0235 UTC 05 December 2019
Temperature: 0.0°C (32°F)
Dewpoint: 0.0°C (32°F) [RH = 100%]
Pressure (altimeter): 29.89 inches Hg (1012.3 mb)
Winds: calm
Visibility: 0.50 miles (0.80 km)
Ceiling: 200 feet AGL
Clouds: broken clouds at 200 feet AGL
overcast cloud deck at 3300 feet AGL
Weather: FG  (fog)

METAR text: KTRK 050215Z AUTO 00000KT 3/4SM BR BKN003 BKN033 OVC070 00/00 A2988 RMK AO2
Conditions at: KTRK (TRUCKEE TAHOE , CA, US) observed 0215 UTC 05 December 2019
Temperature: 0.0°C (32°F)
Dewpoint: 0.0°C (32°F) [RH = 100%]
Pressure (altimeter): 29.88 inches Hg (1011.9 mb)
Winds: calm
Visibility: 0.75 miles (1.21 km)
Ceiling: 300 feet AGL
Clouds: broken clouds at 300 feet AGL
broken clouds at 3300 feet AGL
overcast cloud deck at 7000 feet AGL
Weather: BR  (mist)

METAR text: KTRK 050155Z AUTO 00000KT 3SM BR BKN003 BKN031 OVC039 00/00 A2988 RMK AO2
Conditions at: KTRK (TRUCKEE TAHOE , CA, US) observed 0155 UTC 05 December 2019
Temperature: 0.0°C (32°F)
Dewpoint: 0.0°C (32°F) [RH = 100%]
Pressure (altimeter): 29.88 inches Hg (1011.9 mb)
Winds: calm
Visibility: 3 miles ( 5 km)
Ceiling: 300 feet AGL
Clouds: broken clouds at 300 feet AGL
broken clouds at 3100 feet AGL
overcast cloud deck at 3900 feet AGL
Weather: BR  (mist)

METAR text: KTRK 050135Z AUTO 00000KT 4SM BR OVC003 00/00 A2988 RMK AO2
Conditions at: KTRK (TRUCKEE TAHOE , CA, US) observed 0135 UTC 05 December 2019
Temperature: 0.0°C (32°F)
Dewpoint: 0.0°C (32°F) [RH = 100%]
Pressure (altimeter): 29.88 inches Hg (1011.9 mb)
Winds: calm
Visibility: 4 miles ( 6 km)
Ceiling: 300 feet AGL
Clouds: overcast cloud deck at 300 feet AGL
Weather: BR  (mist)

METAR text: KTRK 050115Z AUTO 00000KT 5SM BR OVC003 00/00 A2988 RMK AO2
Conditions at: KTRK (TRUCKEE TAHOE , CA, US) observed 0115 UTC 05 December 2019
Temperature: 0.0°C (32°F)
Dewpoint: 0.0°C (32°F) [RH = 100%]
Pressure (altimeter): 29.88 inches Hg (1011.9 mb)
Winds: calm
Visibility: 5 miles ( 8 km)
Ceiling: 300 feet AGL
Clouds: overcast cloud deck at 300 feet AGL
Weather: BR  (mist)

METAR text: KTRK 050045Z 00000KT 5SM -RA OVC003 00/00 A2988
Conditions at: KTRK (TRUCKEE TAHOE , CA, US) observed 0045 UTC 05 December 2019
Temperature: 0.0°C (32°F)
Dewpoint: 0.0°C (32°F) [RH = 100%]
Pressure (altimeter): 29.88 inches Hg (1011.9 mb)
Winds: calm
Visibility: 5 miles ( 8 km)
Ceiling: 300 feet AGL
Clouds: overcast cloud deck at 300 feet AGL
Weather: -RA  (light rain)

METAR text: KTRK 042345Z 00000KT 3SM -SN OVC005 01/00 A2988
Conditions at: KTRK (TRUCKEE TAHOE , CA, US) observed 2345 UTC 04 December 2019
Temperature: 1.0°C (34°F)
Dewpoint: 0.0°C (32°F) [RH = 93%]
Pressure (altimeter): 29.88 inches Hg (1011.9 mb)
Winds: calm
Visibility: 3 miles ( 5 km)
Ceiling: 500 feet AGL
Clouds: overcast cloud deck at 500 feet AGL
Weather: -SN  (light snow)

METAR text: KTRK 042245Z 00000KT 7SM SCT003 OVC020 01/00 A2987
Conditions at: KTRK (TRUCKEE TAHOE , CA, US) observed 2245 UTC 04 December 2019
Temperature: 1.0°C (34°F)
Dewpoint: 0.0°C (32°F) [RH = 93%]
Pressure (altimeter): 29.87 inches Hg (1011.6 mb)
Winds: calm
Visibility: 7 miles (11 km)
Ceiling: 2000 feet AGL
Clouds: scattered clouds at 300 feet AGL
overcast cloud deck at 2000 feet AGL
Weather: no significant weather observed at this time

METAR text: KTRK 042145Z 00000KT 2 1/2SM -SN BKN005 OVC020 M00/M00 A2986
Conditions at: KTRK (TRUCKEE TAHOE , CA, US) observed 2145 UTC 04 December 2019
Temperature: 0.0°C (32°F)
Dewpoint: 0.0°C (32°F) [RH = 100%]
Pressure (altimeter): 29.86 inches Hg (1011.3 mb)
Winds: calm
Visibility: 2.50 miles (4.02 km)
Ceiling: 500 feet AGL
Clouds: broken clouds at 500 feet AGL
overcast cloud deck at 2000 feet AGL
Weather: -SN  (light snow)

METAR text: KTRK 042045Z 00000KT 5SM FC SCT003 SCT008 OVC016 M00/M00 A2988
Conditions at: KTRK (TRUCKEE TAHOE , CA, US) observed 2045 UTC 04 December 2019
Temperature: 0.0°C (32°F)
Dewpoint: 0.0°C (32°F) [RH = 100%]
Pressure (altimeter): 29.88 inches Hg (1011.9 mb)
Winds: calm
Visibility: 5 miles ( 8 km)
Ceiling: 1600 feet AGL
Clouds: scattered clouds at 300 feet AGL
scattered clouds at 800 feet AGL
overcast cloud deck at 1600 feet AGL
Weather: FC  (funnel cloud)

METAR text: KTRK 041845Z 00000KT 2SM -SN BKN003 BKN007 OVC017 M01/M01 A2994
Conditions at: KTRK (TRUCKEE TAHOE , CA, US) observed 1845 UTC 04 December 2019
Temperature: -1.0°C (30°F)
Dewpoint: -1.0°C (30°F) [RH = 100%]
Pressure (altimeter): 29.94 inches Hg (1014.0 mb)
Winds: calm
Visibility: 2.00 miles (3.22 km)
Ceiling: 300 feet AGL
Clouds: broken clouds at 300 feet AGL
broken clouds at 700 feet AGL
overcast cloud deck at 1700 feet AGL
Weather: -SN  (light snow)

METAR text: KTRK 041745Z 33003KT 1SM -SN BKN003 OVC007 M01/M01 A2995
Conditions at: KTRK (TRUCKEE TAHOE , CA, US) observed 1745 UTC 04 December 2019
Temperature: -1.0°C (30°F)
Dewpoint: -1.0°C (30°F) [RH = 100%]
Pressure (altimeter): 29.95 inches Hg (1014.3 mb)
Winds: from the NNW (330 degrees) at 3 MPH (3 knots; 1.5 m/s)
Visibility: 1.00 miles (1.61 km)
Ceiling: 300 feet AGL
Clouds: broken clouds at 300 feet AGL
overcast cloud deck at 700 feet AGL
Weather: -SN  (light snow)

METAR text: KTRK 041645Z 00000KT 2SM -SN OVC003 M01/M01 A2995
Conditions at: KTRK (TRUCKEE TAHOE , CA, US) observed 1645 UTC 04 December 2019
Temperature: -1.0°C (30°F)
Dewpoint: -1.0°C (30°F) [RH = 100%]
Pressure (altimeter): 29.95 inches Hg (1014.3 mb)
Winds: calm
Visibility: 2.00 miles (3.22 km)
Ceiling: 300 feet AGL
Clouds: overcast cloud deck at 300 feet AGL
Weather: -SN  (light snow)

METAR text: KTRK 041545Z 00000KT 3SM -SN SCT003 BKN009 OVC039 M01/M01 A2994
Conditions at: KTRK (TRUCKEE TAHOE , CA, US) observed 1545 UTC 04 December 2019
Temperature: -1.0°C (30°F)
Dewpoint: -1.0°C (30°F) [RH = 100%]
Pressure (altimeter): 29.94 inches Hg (1014.0 mb)
Winds: calm
Visibility: 3 miles ( 5 km)
Ceiling: 900 feet AGL
Clouds: scattered clouds at 300 feet AGL
broken clouds at 900 feet AGL
overcast cloud deck at 3900 feet AGL
Weather: -SN  (light snow)

METAR text: KTRK 041445Z 00000KT 1SM FZFG OVC003 01/01 A2996
Conditions at: KTRK (TRUCKEE TAHOE , CA, US) observed 1445 UTC 04 December 2019
Temperature: 1.0°C (34°F)
Dewpoint: 1.0°C (34°F) [RH = 100%]
Pressure (altimeter): 29.96 inches Hg (1014.6 mb)
Winds: calm
Visibility: 1.00 miles (1.61 km)
Ceiling: 300 feet AGL
Clouds: overcast cloud deck at 300 feet AGL
Weather: FZFG  (freezing fog)

METAR text: KTRK 041335Z AUTO 00000KT 1/2SM FZFG OVC003 00/00 A2997 RMK AO2
Conditions at: KTRK (TRUCKEE TAHOE , CA, US) observed 1335 UTC 04 December 2019
Temperature: 0.0°C (32°F)
Dewpoint: 0.0°C (32°F) [RH = 100%]
Pressure (altimeter): 29.97 inches Hg (1015.0 mb)
Winds: calm
Visibility: 0.50 miles (0.80 km)
Ceiling: 300 feet AGL
Clouds: overcast cloud deck at 300 feet AGL
Weather: FZFG  (freezing fog)

Forecast for: KTRK (TRUCKEE TAHOE , CA, US)
Text: KTRK 052320Z 0600/0624 VRB03KT P6SM SKC
Forecast period: 0000 to 0600 UTC 06 December 2019
Forecast type: FROM: standard forecast or significant change
Winds: variable direction winds at 3 MPH (3 knots; 1.5 m/s)
Visibility: 6 or more miles 10+ km)
Clouds: clear skies
Weather: no significant weather forecast for this period
Text: FM060600 00000KT 1/4SM FZFG OVC003
Forecast period: 0600 to 2200 UTC 06 December 2019
Forecast type: FROM: standard forecast or significant change
Winds: calm
Visibility: 0.25 miles (0.40 km)
Ceiling: 300 feet AGL
Clouds: overcast cloud deck at 300 feet AGL
Weather: FZFG  (freezing fog)
Text: FM062200 19006KT P6SM SCT080 BKN200
Forecast period: 2200 UTC 06 December 2019 to 0000 UTC 07 December 2019
Forecast type: FROM: standard forecast or significant change
Winds: from the S (190 degrees) at 7 MPH (6 knots; 3.1 m/s)
Visibility: 6 or more miles 10+ km)
Ceiling: 20000 feet AGL
Clouds: scattered clouds at 8000 feet AGL
broken clouds at 20000 feet AGL
Weather: no significant weather forecast for this period